Time;durP1;ratioP1;P1;durP2;ratioP2;P2;SDS_P1;SDS_P2;PMS_P1;PMS_P2;Temp;Humidity;BMP_temperature;BMP_pressure;BME280_temperature;BME280_humidity;BME280_pressure;Samples;Min_cycle;Max_cycle;Signal;HPM_P1;HPM_P2
2023/05/25 00:01:03;;;;;;;17.00;8.90;;;9.70;99.90;;;;;;4884171;29;20622;-61
2023/05/25 00:03:31;;;;;;;14.40;8.63;;;9.60;99.90;;;;;;4903754;29;20200;-61
2023/05/25 00:06:01;;;;;;;18.63;9.67;;;9.70;99.90;;;;;;4888936;29;20224;-63
2023/05/25 00:08:28;;;;;;;19.63;9.53;;;9.60;99.90;;;;;;4905543;29;20496;-62
2023/05/25 00:10:55;;;;;;;15.83;8.70;;;9.60;99.90;;;;;;4891496;29;20260;-62
2023/05/25 00:13:22;;;;;;;13.73;9.00;;;9.50;99.90;;;;;;4891226;29;20757;-62
2023/05/25 00:15:49;;;;;;;16.60;9.30;;;9.40;99.90;;;;;;4900525;29;20200;-62
2023/05/25 00:18:17;;;;;;;14.53;9.33;;;9.30;99.90;;;;;;4910299;29;20674;-60
2023/05/25 00:20:46;;;;;;;14.53;9.13;;;9.20;99.90;;;;;;4896666;29;20201;-62
2023/05/25 00:23:13;;;;;;;14.93;9.60;;;9.20;99.90;;;;;;4906737;29;20195;-62
2023/05/25 00:25:40;;;;;;;14.10;9.10;;;9.10;99.90;;;;;;4908641;29;20224;-61
2023/05/25 00:28:07;;;;;;;15.83;9.40;;;9.10;99.90;;;;;;4908672;29;20204;-61
2023/05/25 00:30:34;;;;;;;16.13;9.20;;;9.10;99.90;;;;;;4893230;29;20212;-62
2023/05/25 00:33:01;;;;;;;12.63;8.87;;;9.00;99.90;;;;;;4885293;29;20239;-61
2023/05/25 00:35:29;;;;;;;14.50;8.93;;;9.00;99.90;;;;;;4887396;29;20196;-64
2023/05/25 00:37:56;;;;;;;12.60;9.00;;;8.90;99.90;;;;;;4883826;29;20200;-61
2023/05/25 00:40:23;;;;;;;17.20;9.40;;;8.90;99.90;;;;;;4881253;29;20244;-62
2023/05/25 00:42:51;;;;;;;17.60;10.37;;;8.80;99.90;;;;;;4887087;29;20319;-62
2023/05/25 00:45:18;;;;;;;20.50;11.47;;;8.70;99.90;;;;;;4900944;29;20343;-62
2023/05/25 00:47:53;;;;;;;18.67;10.53;;;8.60;99.90;;;;;;4887781;29;20197;-62
2023/05/25 00:50:39;;;;;;;19.10;9.90;;;8.60;99.90;;;;;;4899836;29;20811;-62
2023/05/25 00:53:08;;;;;;;18.23;10.53;;;8.50;99.90;;;;;;4874682;29;20308;-62
2023/05/25 00:55:40;;;;;;;14.80;10.50;;;8.50;99.90;;;;;;4885682;29;20608;-61
2023/05/25 00:58:10;;;;;;;17.87;9.93;;;8.50;99.90;;;;;;4891068;29;20708;-62
2023/05/25 01:00:41;;;;;;;18.30;9.97;;;8.50;99.90;;;;;;4902088;29;20200;-62
2023/05/25 01:03:16;;;;;;;16.07;9.93;;;8.50;99.90;;;;;;4904452;23;20200;-69
2023/05/25 01:05:47;;;;;;;21.80;10.47;;;8.40;99.90;;;;;;4909027;29;20227;-69
2023/05/25 01:08:17;;;;;;;16.60;10.27;;;8.40;99.90;;;;;;4918620;29;20199;-69
2023/05/25 01:10:47;;;;;;;14.57;10.50;;;8.40;99.90;;;;;;4929964;28;20267;-69
2023/05/25 01:13:18;;;;;;;18.63;10.20;;;8.20;99.90;;;;;;4933462;29;20206;-69
2023/05/25 01:15:46;;;;;;;15.47;10.43;;;8.00;99.90;;;;;;4913883;29;20669;-68
2023/05/25 01:18:16;;;;;;;17.37;10.93;;;8.00;99.90;;;;;;4935512;29;20236;-68
2023/05/25 01:21:19;;;;;;;21.50;10.90;;;7.90;99.90;;;;;;4897326;29;20207;-69
2023/05/25 01:23:52;;;;;;;20.27;11.33;;;7.80;99.90;;;;;;4909460;29;20203;-68
2023/05/25 01:26:22;;;;;;;16.27;11.77;;;7.80;99.90;;;;;;4896859;29;20574;-68
2023/05/25 01:28:51;;;;;;;18.53;11.33;;;7.90;99.90;;;;;;4920259;29;20202;-70
2023/05/25 01:31:22;;;;;;;13.70;11.47;;;7.90;99.90;;;;;;4904316;29;20213;-68
2023/05/25 01:33:50;;;;;;;18.60;12.80;;;7.90;99.90;;;;;;4917396;29;20191;-69
2023/05/25 01:36:18;;;;;;;22.53;15.27;;;7.90;99.90;;;;;;4918020;29;20223;-68
2023/05/25 01:38:45;;;;;;;17.60;11.63;;;7.90;99.90;;;;;;4933803;29;20215;-68
2023/05/25 01:41:12;;;;;;;20.10;12.03;;;7.90;99.90;;;;;;4929328;29;20203;-67
2023/05/25 01:43:40;;;;;;;17.73;12.77;;;7.80;99.90;;;;;;4922189;29;20208;-67
2023/05/25 01:46:26;;;;;;;21.77;12.37;;;7.60;99.90;;;;;;4923768;29;20207;-67
2023/05/25 01:49:08;;;;;;;16.53;12.03;;;7.50;99.90;;;;;;4924679;29;20452;-67
2023/05/25 01:51:54;;;;;;;20.33;15.33;;;7.60;99.90;;;;;;4928724;29;20191;-67
2023/05/25 01:54:29;;;;;;;15.77;11.90;;;7.60;99.90;;;;;;4902311;29;20230;-70
2023/05/25 01:57:00;;;;;;;18.73;11.87;;;7.70;99.90;;;;;;4908602;29;20254;-67
2023/05/25 01:59:29;;;;;;;17.23;12.50;;;7.80;99.90;;;;;;4920101;29;20471;-67
2023/05/25 02:01:58;;;;;;;20.60;11.83;;;7.80;99.90;;;;;;4918786;29;20646;-67
2023/05/25 02:04:26;;;;;;;16.50;11.60;;;7.70;99.90;;;;;;4910942;29;20274;-67
2023/05/25 02:06:53;;;;;;;16.93;11.77;;;7.80;99.90;;;;;;4903333;29;20220;-68
2023/05/25 02:09:20;;;;;;;16.60;11.60;;;7.80;99.90;;;;;;4908353;29;20202;-60
2023/05/25 02:11:48;;;;;;;18.00;10.87;;;7.80;99.90;;;;;;4920348;29;20191;-59
2023/05/25 02:14:15;;;;;;;15.50;9.60;;;7.80;99.90;;;;;;4906130;29;20686;-59
2023/05/25 02:16:44;;;;;;;18.30;10.63;;;7.70;99.90;;;;;;4897687;29;20205;-58
2023/05/25 02:19:13;;;;;;;16.07;10.80;;;7.70;99.90;;;;;;4923019;29;20199;-58
2023/05/25 02:21:41;;;;;;;18.83;10.33;;;7.60;99.90;;;;;;4920971;29;20226;-58
2023/05/25 02:24:09;;;;;;;20.53;12.80;;;7.60;99.90;;;;;;4919826;29;20196;-59
2023/05/25 02:26:36;;;;;;;16.00;10.93;;;7.60;99.90;;;;;;4931071;29;20278;-58
2023/05/25 02:29:04;;;;;;;14.57;10.00;;;7.60;99.90;;;;;;4913036;29;20187;-59
2023/05/25 02:31:31;;;;;;;13.50;9.63;;;7.60;99.90;;;;;;4916142;29;20198;-59
2023/05/25 02:33:59;;;;;;;16.20;10.20;;;7.60;99.90;;;;;;4905634;29;20203;-58
2023/05/25 02:36:27;;;;;;;17.00;10.17;;;7.60;99.90;;;;;;4925880;29;20853;-57
2023/05/25 02:38:54;;;;;;;15.07;9.70;;;7.60;99.90;;;;;;4908780;29;20204;-58
2023/05/25 02:41:23;;;;;;;16.03;9.73;;;7.60;99.90;;;;;;4920465;29;20224;-57
2023/05/25 02:43:50;;;;;;;14.67;11.17;;;7.50;99.90;;;;;;4916819;29;20208;-58
2023/05/25 02:46:17;;;;;;;14.90;8.80;;;7.50;99.90;;;;;;4918546;29;20310;-57
2023/05/25 02:48:45;;;;;;;15.60;9.70;;;7.60;99.90;;;;;;4918672;29;20350;-57
2023/05/25 02:51:12;;;;;;;18.43;9.70;;;7.50;99.90;;;;;;4926443;29;20214;-57
2023/05/25 02:53:40;;;;;;;10.53;8.40;;;7.80;99.90;;;;;;4913066;29;20204;-59
2023/05/25 02:56:09;;;;;;;15.73;8.83;;;7.60;99.90;;;;;;4914344;29;20231;-59
2023/05/25 02:58:37;;;;;;;13.63;8.60;;;7.60;99.90;;;;;;4912990;29;20200;-59
2023/05/25 03:01:18;;;;;;;14.97;9.07;;;7.70;99.90;;;;;;4926039;29;20311;-59
2023/05/25 03:03:52;;;;;;;13.67;8.73;;;7.70;99.90;;;;;;4922667;29;20238;-59
2023/05/25 03:06:22;;;;;;;9.83;8.83;;;7.80;99.90;;;;;;4923654;29;20217;-57
2023/05/25 03:08:53;;;;;;;12.10;8.37;;;7.50;99.90;;;;;;4931429;29;20199;-62
2023/05/25 03:11:23;;;;;;;11.23;8.03;;;7.60;99.90;;;;;;4923333;29;20206;-62
2023/05/25 03:13:51;;;;;;;12.90;8.33;;;7.50;99.90;;;;;;4921445;29;20211;-60
2023/05/25 03:16:21;;;;;;;13.90;9.60;;;7.50;99.90;;;;;;4924255;29;20668;-60
2023/05/25 03:18:49;;;;;;;12.93;9.13;;;7.40;99.90;;;;;;4928091;29;20207;-59
2023/05/25 03:21:16;;;;;;;15.07;9.23;;;7.40;99.90;;;;;;4929272;29;20223;-62
2023/05/25 03:23:43;;;;;;;12.97;8.53;;;7.40;99.90;;;;;;4921196;29;20606;-61
2023/05/25 03:26:10;;;;;;;14.60;8.27;;;7.40;99.90;;;;;;4942054;29;20207;-60
2023/05/25 03:28:38;;;;;;;17.97;9.27;;;7.40;99.90;;;;;;4937555;29;20207;-61
2023/05/25 03:31:06;;;;;;;14.20;10.00;;;7.30;99.90;;;;;;4908489;28;20887;-59
2023/05/25 03:33:33;;;;;;;14.53;9.90;;;7.10;99.90;;;;;;4914101;29;20208;-61
2023/05/25 03:36:00;;;;;;;12.50;9.87;;;7.00;99.90;;;;;;4919276;29;20693;-60
2023/05/25 03:38:27;;;;;;;20.67;10.67;;;6.90;99.90;;;;;;4914879;29;20834;-60
2023/05/25 03:40:57;;;;;;;12.67;11.13;;;6.90;99.90;;;;;;4920102;29;20242;-60
2023/05/25 03:43:24;;;;;;;16.37;10.50;;;7.00;99.90;;;;;;4914518;29;20230;-58
2023/05/25 03:45:52;;;;;;;11.77;10.27;;;6.90;99.90;;;;;;4920148;29;20301;-66
2023/05/25 03:48:19;;;;;;;16.83;11.23;;;6.80;99.90;;;;;;4912726;29;20204;-59
2023/05/25 03:50:46;;;;;;;15.57;10.23;;;7.00;99.90;;;;;;4916007;29;20737;-60
2023/05/25 03:53:13;;;;;;;16.07;10.70;;;7.20;99.90;;;;;;4921961;29;20912;-59
2023/05/25 03:55:40;;;;;;;18.50;11.10;;;7.40;99.90;;;;;;4902806;29;20749;-60
2023/05/25 03:58:10;;;;;;;14.90;10.70;;;7.50;99.90;;;;;;4913569;29;20681;-60
2023/05/25 04:00:37;;;;;;;15.70;10.23;;;7.70;99.90;;;;;;4916935;29;20235;-60
2023/05/25 04:03:05;;;;;;;13.80;9.43;;;8.00;99.90;;;;;;4919506;28;20203;-59
2023/05/25 04:05:32;;;;;;;16.63;10.17;;;8.40;99.90;;;;;;4927540;29;20222;-60
2023/05/25 04:08:01;;;;;;;15.47;9.50;;;8.80;99.90;;;;;;4933302;29;20211;-59
2023/05/25 04:10:28;;;;;;;15.03;9.80;;;9.00;99.90;;;;;;4928651;29;20676;-61
2023/05/25 04:12:58;;;;;;;14.17;9.73;;;9.20;99.90;;;;;;4938541;29;20215;-61
2023/05/25 04:15:25;;;;;;;13.83;9.27;;;9.40;99.90;;;;;;4923049;29;20598;-61
2023/05/25 04:18:01;;;;;;;16.07;9.20;;;9.70;99.90;;;;;;4918991;29;20709;-71
2023/05/25 04:20:29;;;;;;;12.53;8.87;;;9.60;99.90;;;;;;4915622;29;20309;-71
2023/05/25 04:22:56;;;;;;;15.07;10.00;;;9.80;99.90;;;;;;4914790;29;20204;-72
2023/05/25 04:25:24;;;;;;;16.60;9.40;;;9.90;99.90;;;;;;4931416;29;20650;-72
2023/05/25 04:27:56;;;;;;;13.47;7.57;;;10.00;99.90;;;;;;4917611;29;20286;-68
2023/05/25 04:30:46;;;;;;;12.57;7.83;;;10.10;99.90;;;;;;4911010;29;20283;-67
2023/05/25 04:33:28;;;;;;;10.40;7.40;;;10.00;99.90;;;;;;4919118;29;20204;-66
2023/05/25 04:36:16;;;;;;;18.80;8.73;;;9.40;99.90;;;;;;4933665;29;20207;-68
2023/05/25 04:38:46;;;;;;;13.10;7.97;;;9.00;99.90;;;;;;4915630;29;20826;-68
2023/05/25 04:41:14;;;;;;;10.97;8.10;;;9.00;99.90;;;;;;4914363;29;20705;-68
2023/05/25 04:43:46;;;;;;;15.43;8.93;;;9.20;99.90;;;;;;4933180;29;20202;-70
2023/05/25 04:46:36;;;;;;;12.50;9.10;;;9.40;99.90;;;;;;4922682;29;20298;-70
2023/05/25 04:49:04;;;;;;;12.50;10.53;;;10.20;99.90;;;;;;4930133;29;20207;-69
2023/05/25 04:51:31;;;;;;;18.30;11.10;;;11.00;99.90;;;;;;4927623;29;20196;-70
2023/05/25 04:53:58;;;;;;;13.90;9.53;;;12.20;99.90;;;;;;4905368;29;20250;-70
2023/05/25 04:56:26;;;;;;;10.63;8.23;;;13.50;99.90;;;;;;4926282;29;20220;-70
2023/05/25 04:58:53;;;;;;;10.65;7.13;;;14.10;99.90;;;;;;4894682;29;20217;-70
2023/05/25 05:01:20;;;;;;;20.33;10.25;;;14.60;99.90;;;;;;4915896;29;20214;-67
2023/05/25 05:03:47;;;;;;;15.45;8.57;;;15.20;99.90;;;;;;4918920;29;20247;-69
2023/05/25 05:06:15;;;;;;;11.57;7.47;;;15.50;99.90;;;;;;4932958;29;20266;-68
2023/05/25 05:08:42;;;;;;;12.55;8.20;;;15.50;99.90;;;;;;4924512;29;20198;-69
2023/05/25 05:11:09;;;;;;;11.60;6.85;;;15.80;99.90;;;;;;4924405;29;20203;-70
2023/05/25 05:13:36;;;;;;;11.05;6.85;;;16.00;99.90;;;;;;4913578;29;20218;-68
2023/05/25 05:16:03;;;;;;;12.48;6.75;;;16.60;99.90;;;;;;4930531;29;20217;-69
2023/05/25 05:18:31;;;;;;;9.25;6.25;;;16.90;99.90;;;;;;4922149;29;20217;-69
2023/05/25 05:20:58;;;;;;;11.00;6.20;;;16.90;99.90;;;;;;4911399;29;20701;-68
2023/05/25 05:23:25;;;;;;;11.65;7.22;;;16.80;99.90;;;;;;4924364;29;20205;-69
2023/05/25 05:25:53;;;;;;;16.80;7.63;;;16.00;99.90;;;;;;4913991;29;20324;-69
2023/05/25 05:28:21;;;;;;;14.20;9.23;;;15.00;99.90;;;;;;4914710;29;20490;-68
2023/05/25 05:30:48;;;;;;;12.23;7.30;;;14.80;99.90;;;;;;4910185;29;20204;-69
2023/05/25 05:33:15;;;;;;;15.40;9.98;;;15.20;99.90;;;;;;4934523;29;20662;-67
2023/05/25 05:35:44;;;;;;;16.00;10.48;;;16.00;99.90;;;;;;4917492;29;20606;-59
2023/05/25 05:38:17;;;;;;;16.73;9.45;;;17.20;99.90;;;;;;4901633;29;20712;-58
2023/05/25 05:40:44;;;;;;;16.02;10.77;;;17.90;99.90;;;;;;4901544;29;20597;-60
2023/05/25 05:43:13;;;;;;;14.98;9.32;;;18.70;99.90;;;;;;4918301;29;20203;-59
2023/05/25 05:45:40;;;;;;;12.20;8.70;;;19.80;99.90;;;;;;4919811;29;20203;-59
2023/05/25 05:48:10;;;;;;;10.20;6.32;;;20.30;99.90;;;;;;4908740;29;20723;-67
2023/05/25 05:50:38;;;;;;;12.40;7.63;;;20.50;99.90;;;;;;4905581;29;20204;-67
2023/05/25 05:53:09;;;;;;;15.20;5.55;;;21.00;99.90;;;;;;4917406;29;20204;-68
2023/05/25 05:55:36;;;;;;;12.10;5.38;;;21.30;99.90;;;;;;4900265;29;20214;-65
2023/05/25 05:58:04;;;;;;;13.95;6.03;;;20.70;99.90;;;;;;4908193;29;20251;-66
2023/05/25 06:00:31;;;;;;;12.68;5.47;;;20.40;99.90;;;;;;4930416;29;20203;-69
2023/05/25 06:02:59;;;;;;;10.80;5.53;;;20.90;99.90;;;;;;4911601;29;20694;-68
2023/05/25 06:05:28;;;;;;;8.13;4.63;;;21.90;99.90;;;;;;4915455;29;20879;-67
2023/05/25 06:07:57;;;;;;;12.80;5.63;;;22.80;99.90;;;;;;4908508;29;20689;-59
2023/05/25 06:10:24;;;;;;;8.70;5.10;;;23.50;99.90;;;;;;4916352;29;20200;-62
2023/05/25 06:12:51;;;;;;;13.15;6.35;;;24.10;99.90;;;;;;4909571;29;20210;-62
2023/05/25 06:15:18;;;;;;;12.68;5.78;;;22.30;99.90;;;;;;4924240;29;20239;-61
2023/05/25 06:17:48;;;;;;;11.65;5.95;;;20.20;99.90;;;;;;4901645;29;20587;-61
2023/05/25 06:20:16;;;;;;;13.00;6.60;;;19.30;99.90;;;;;;4908418;29;20628;-61
2023/05/25 06:22:44;;;;;;;12.80;5.72;;;19.70;99.90;;;;;;4926376;29;20758;-70
2023/05/25 06:25:12;;;;;;;11.93;5.60;;;20.80;99.90;;;;;;4925357;29;20211;-62
2023/05/25 06:27:42;;;;;;;9.75;5.07;;;21.80;99.90;;;;;;4923483;29;20216;-60
2023/05/25 06:30:11;;;;;;;11.02;5.57;;;22.50;99.90;;;;;;4922381;29;20210;-61
2023/05/25 06:32:38;;;;;;;10.18;5.88;;;22.70;99.90;;;;;;4908756;29;20206;-59
2023/05/25 06:35:05;;;;;;;11.75;5.65;;;23.20;99.90;;;;;;4909157;29;20874;-60
2023/05/25 06:37:36;;;;;;;9.80;5.03;;;23.50;99.90;;;;;;4924062;29;20693;-60
2023/05/25 06:40:08;;;;;;;9.40;5.38;;;24.40;99.90;;;;;;4908791;29;20227;-60
2023/05/25 06:42:36;;;;;;;15.15;5.75;;;25.00;99.90;;;;;;4924314;29;20203;-62
2023/05/25 06:45:04;;;;;;;9.07;5.30;;;24.30;99.90;;;;;;4924254;29;20213;-61
2023/05/25 06:47:31;;;;;;;8.60;4.82;;;25.10;99.90;;;;;;4923492;29;20215;-61
2023/05/25 06:49:59;;;;;;;9.80;4.72;;;25.70;99.90;;;;;;4921701;29;20208;-61
2023/05/25 06:52:30;;;;;;;11.18;5.82;;;24.90;99.90;;;;;;4923798;29;20204;-60
2023/05/25 06:54:57;;;;;;;9.93;6.07;;;22.90;99.90;;;;;;4922574;29;20196;-61
2023/05/25 06:57:24;;;;;;;10.32;5.32;;;22.80;99.90;;;;;;4922629;29;20696;-60
2023/05/25 06:59:51;;;;;;;9.85;5.35;;;21.60;99.90;;;;;;4924026;29;20204;-62
2023/05/25 07:02:19;;;;;;;12.13;6.50;;;20.40;99.90;;;;;;4921673;29;20762;-60
2023/05/25 07:04:48;;;;;;;17.27;6.93;;;18.60;99.90;;;;;;4926528;29;20236;-61
2023/05/25 07:07:22;;;;;;;14.10;6.72;;;17.40;99.90;;;;;;4926297;29;20229;-69
2023/05/25 07:09:49;;;;;;;11.93;6.68;;;16.80;99.90;;;;;;4926336;29;20779;-71
2023/05/25 07:12:17;;;;;;;12.00;6.53;;;17.10;99.90;;;;;;4927216;29;20620;-71
2023/05/25 07:14:47;;;;;;;13.20;6.80;;;17.20;99.90;;;;;;4931952;29;20277;-62
2023/05/25 07:17:15;;;;;;;12.32;6.85;;;17.40;99.90;;;;;;4927627;29;20572;-61
2023/05/25 07:19:42;;;;;;;16.10;7.15;;;16.90;99.90;;;;;;4923773;29;20255;-62
2023/05/25 07:22:09;;;;;;;12.65;6.78;;;16.90;99.90;;;;;;4927435;29;20258;-63
2023/05/25 07:24:36;;;;;;;11.75;6.40;;;17.50;99.90;;;;;;4926347;29;20207;-61
2023/05/25 07:27:04;;;;;;;12.23;6.70;;;16.90;99.90;;;;;;4926818;29;20244;-61
2023/05/25 07:29:31;;;;;;;11.88;7.88;;;16.70;99.90;;;;;;4924778;29;20666;-70
2023/05/25 07:31:58;;;;;;;16.90;7.80;;;16.40;99.90;;;;;;4924335;29;20736;-69
2023/05/25 07:34:25;;;;;;;16.23;7.82;;;15.60;99.90;;;;;;4928503;29;20195;-70
2023/05/25 07:36:53;;;;;;;15.55;8.30;;;15.20;99.90;;;;;;4927021;29;20600;-62
2023/05/25 07:39:20;;;;;;;13.65;7.40;;;15.40;99.90;;;;;;4909811;29;20216;-62
2023/05/25 07:41:47;;;;;;;16.75;7.63;;;15.40;99.90;;;;;;4922806;29;20231;-61
2023/05/25 07:44:14;;;;;;;15.55;7.10;;;15.00;99.90;;;;;;4923003;29;20822;-61
2023/05/25 07:46:42;;;;;;;11.13;6.47;;;15.10;99.90;;;;;;4921802;29;20705;-62
2023/05/25 07:49:14;;;;;;;12.05;6.15;;;15.40;99.90;;;;;;4926241;29;20255;-62
2023/05/25 07:51:45;;;;;;;11.15;5.90;;;16.00;99.90;;;;;;4908731;29;20806;-63
2023/05/25 07:54:12;;;;;;;12.30;6.35;;;16.10;99.90;;;;;;4925654;29;20199;-62
2023/05/25 07:56:39;;;;;;;11.05;6.28;;;16.10;99.90;;;;;;4924031;29;20290;-60
2023/05/25 07:59:06;;;;;;;13.25;6.43;;;15.90;99.90;;;;;;4909503;29;20223;-60
2023/05/25 08:01:34;;;;;;;11.77;6.20;;;16.10;99.90;;;;;;4927595;29;20278;-62
2023/05/25 08:04:01;;;;;;;11.27;6.10;;;15.70;99.90;;;;;;4925055;29;20259;-62
2023/05/25 08:06:28;;;;;;;16.45;6.32;;;15.80;99.90;;;;;;4913159;29;20219;-71
2023/05/25 08:08:55;;;;;;;14.63;6.28;;;15.90;99.90;;;;;;4924534;29;20207;-71
2023/05/25 08:11:25;;;;;;;14.70;6.22;;;16.20;99.90;;;;;;4926262;29;20700;-71
2023/05/25 08:13:52;;;;;;;10.27;5.57;;;16.60;99.90;;;;;;4907617;29;20211;-61
2023/05/25 08:16:19;;;;;;;11.10;5.90;;;17.00;99.90;;;;;;4912023;29;20203;-70
2023/05/25 08:18:46;;;;;;;10.40;6.13;;;17.10;99.90;;;;;;4906887;29;20204;-69
2023/05/25 08:21:13;;;;;;;9.70;6.28;;;16.80;99.90;;;;;;4909450;29;20214;-71
2023/05/25 08:23:43;;;;;;;12.18;4.82;;;17.30;99.90;;;;;;4924451;29;20705;-70
2023/05/25 08:26:11;;;;;;;10.55;5.07;;;17.20;99.90;;;;;;4907721;29;20209;-71
2023/05/25 08:28:58;;;;;;;9.07;4.82;;;16.60;99.90;;;;;;4924529;29;21054;-70
2023/05/25 08:31:25;;;;;;;9.65;5.43;;;16.50;99.90;;;;;;4921533;29;20200;-71
2023/05/25 08:33:52;;;;;;;10.13;5.07;;;16.70;99.90;;;;;;4908255;29;20199;-67
2023/05/25 08:36:19;;;;;;;9.13;5.25;;;16.00;99.90;;;;;;4926638;29;20226;-69
2023/05/25 08:38:46;;;;;;;12.27;5.07;;;15.40;99.90;;;;;;4925511;29;20196;-68
2023/05/25 08:41:13;;;;;;;11.63;5.28;;;15.80;99.90;;;;;;4924656;29;20204;-67
2023/05/25 08:43:41;;;;;;;13.02;5.68;;;16.20;99.90;;;;;;4925832;29;20199;-69
2023/05/25 08:46:08;;;;;;;10.82;4.88;;;16.30;99.90;;;;;;4903540;29;20209;-70
2023/05/25 08:48:36;;;;;;;8.52;4.97;;;15.70;99.90;;;;;;4925338;29;20736;-67
2023/05/25 08:51:15;;;;;;;10.85;5.30;;;15.90;99.90;;;;;;4907941;29;20202;-69
2023/05/25 08:53:43;;;;;;;11.80;5.13;;;15.50;99.90;;;;;;4925459;29;20200;-68
2023/05/25 08:56:25;;;;;;;12.02;5.47;;;15.40;99.90;;;;;;4924146;29;20564;-68
2023/05/25 08:59:00;;;;;;;13.18;5.88;;;15.00;99.90;;;;;;4924919;29;20199;-67
2023/05/25 09:01:32;;;;;;;11.20;5.22;;;14.60;99.90;;;;;;4908382;29;20306;-68
2023/05/25 09:04:00;;;;;;;15.73;8.07;;;14.90;99.90;;;;;;4923097;29;20346;-67
2023/05/25 09:06:27;;;;;;;18.37;11.40;;;14.90;99.90;;;;;;4924671;29;20618;-68
2023/05/25 09:08:54;;;;;;;16.77;11.43;;;14.70;99.90;;;;;;4922713;29;20255;-67
2023/05/25 09:11:22;;;;;;;17.05;11.45;;;15.10;99.90;;;;;;4924954;29;20204;-67
2023/05/25 09:14:07;;;;;;;19.33;12.52;;;15.60;99.90;;;;;;4924696;29;20707;-67
2023/05/25 09:16:36;;;;;;;16.30;9.70;;;15.10;99.90;;;;;;4925240;29;20208;-67
2023/05/25 09:19:03;;;;;;;19.67;11.90;;;15.00;99.90;;;;;;4907853;29;20196;-67
2023/05/25 09:21:30;;;;;;;16.80;11.65;;;15.40;99.90;;;;;;4922659;29;20957;-67
2023/05/25 09:23:59;;;;;;;18.75;12.90;;;15.50;99.90;;;;;;4906694;29;20751;-67
2023/05/25 09:26:26;;;;;;;19.75;12.35;;;15.60;99.90;;;;;;4907277;29;20696;-67
2023/05/25 09:28:54;;;;;;;20.67;14.15;;;15.00;99.90;;;;;;4909461;29;20203;-67
2023/05/25 09:31:22;;;;;;;22.35;12.68;;;14.80;99.90;;;;;;4903678;29;20203;-67
2023/05/25 09:33:50;;;;;;;16.40;10.93;;;15.50;99.90;;;;;;4908213;29;20331;-68
2023/05/25 09:36:20;;;;;;;19.40;11.95;;;16.00;99.90;;;;;;4924992;29;20227;-66
2023/05/25 09:38:47;;;;;;;18.02;11.40;;;16.10;99.90;;;;;;4920511;29;20748;-68
2023/05/25 09:41:15;;;;;;;17.38;10.77;;;16.70;99.90;;;;;;4908253;29;21635;-67
2023/05/25 09:43:43;;;;;;;19.00;10.93;;;16.60;99.90;;;;;;4889079;29;20215;-69
2023/05/25 09:46:24;;;;;;;16.30;10.38;;;16.80;99.90;;;;;;4923389;29;20249;-66
2023/05/25 09:48:52;;;;;;;12.25;8.30;;;17.40;99.90;;;;;;4920675;29;20793;-67
2023/05/25 09:51:20;;;;;;;17.92;9.75;;;18.60;99.90;;;;;;4923944;29;20219;-67
2023/05/25 09:53:48;;;;;;;14.27;10.18;;;19.70;99.90;;;;;;4905881;29;20290;-67
2023/05/25 09:56:16;;;;;;;16.40;11.43;;;19.70;99.90;;;;;;4922395;29;20531;-67
2023/05/25 09:58:44;;;;;;;17.38;10.63;;;18.60;99.90;;;;;;4922623;29;20664;-68
2023/05/25 10:01:11;;;;;;;18.15;11.30;;;17.30;99.90;;;;;;4924245;29;20673;-67
2023/05/25 10:03:47;;;;;;;16.85;10.93;;;16.20;99.90;;;;;;4925316;29;20238;-68
2023/05/25 10:06:31;;;;;;;13.30;8.02;;;15.80;99.90;;;;;;4923320;29;20195;-67
2023/05/25 10:09:00;;;;;;;15.77;9.50;;;16.00;99.90;;;;;;4922983;29;20784;-67
2023/05/25 10:11:28;;;;;;;14.02;8.95;;;16.50;99.90;;;;;;4892291;29;20208;-70
2023/05/25 10:14:02;;;;;;;17.30;10.85;;;17.00;99.90;;;;;;4924869;29;20202;-67
2023/05/25 10:16:32;;;;;;;16.55;10.52;;;16.80;99.90;;;;;;4923587;29;20695;-68
2023/05/25 10:19:16;;;;;;;17.13;11.10;;;17.00;99.90;;;;;;4906359;29;20301;-69
2023/05/25 10:22:06;;;;;;;17.23;9.77;;;17.20;99.90;;;;;;4907578;29;20210;-68
2023/05/25 10:24:42;;;;;;;13.35;8.38;;;17.40;99.90;;;;;;4921654;29;20271;-68
2023/05/25 10:27:16;;;;;;;15.18;9.43;;;18.00;99.90;;;;;;4921498;29;20597;-68
2023/05/25 10:29:51;;;;;;;13.82;9.15;;;18.30;99.90;;;;;;4924549;29;20967;-68
2023/05/25 10:32:18;;;;;;;20.08;9.88;;;18.70;99.90;;;;;;4923164;29;20837;-68
2023/05/25 10:34:46;;;;;;;12.13;9.55;;;18.80;99.90;;;;;;4925184;29;20221;-68
2023/05/25 10:37:14;;;;;;;14.73;9.10;;;19.10;99.90;;;;;;4920827;29;20199;-68
2023/05/25 10:39:43;;;;;;;12.77;7.97;;;19.40;99.90;;;;;;4924228;29;20207;-68
2023/05/25 10:42:11;;;;;;;12.60;8.05;;;19.30;99.90;;;;;;4906398;29;20282;-68
2023/05/25 10:44:42;;;;;;;13.73;9.43;;;19.40;99.90;;;;;;4921742;29;20298;-68
2023/05/25 10:47:09;;;;;;;10.93;7.63;;;19.50;99.90;;;;;;4918032;29;20238;-68
2023/05/25 10:49:54;;;;;;;11.27;7.55;;;19.60;99.90;;;;;;4920969;29;20237;-68
2023/05/25 10:52:26;;;;;;;11.60;6.93;;;19.80;99.90;;;;;;4924782;29;20206;-68
2023/05/25 10:55:00;;;;;;;11.77;7.82;;;20.00;99.90;;;;;;4918619;29;20918;-68
2023/05/25 10:57:28;;;;;;;14.70;8.75;;;19.50;99.90;;;;;;4910146;29;20199;-68
2023/05/25 11:00:05;;;;;;;12.55;8.00;;;19.70;99.90;;;;;;4925816;29;20534;-67
2023/05/25 11:02:54;;;;;;;11.95;8.13;;;19.50;99.90;;;;;;4910171;29;20211;-65
2023/05/25 11:05:30;;;;;;;11.75;8.30;;;18.20;99.90;;;;;;4925755;29;20236;-65
2023/05/25 11:07:58;;;;;;;14.15;7.80;;;18.10;99.90;;;;;;4927009;29;20215;-65
2023/05/25 11:10:47;;;;;;;12.43;7.55;;;18.10;99.90;;;;;;4924486;29;20211;-68
2023/05/25 11:13:33;;;;;;;9.63;6.70;;;18.60;99.90;;;;;;4927107;29;20274;-69
2023/05/25 11:16:28;;;;;;;11.25;7.00;;;18.50;99.90;;;;;;4922178;29;20200;-70
2023/05/25 11:18:58;;;;;;;9.73;6.55;;;18.80;99.90;;;;;;4922960;29;20199;-68
2023/05/25 11:21:26;;;;;;;13.20;6.32;;;19.10;99.90;;;;;;4907385;29;20199;-71
2023/05/25 11:23:54;;;;;;;10.05;6.57;;;19.10;99.90;;;;;;4925024;29;20204;-70
2023/05/25 11:26:52;;;;;;;11.43;6.93;;;19.50;99.90;;;;;;4926936;29;20200;-70
2023/05/25 11:29:20;;;;;;;10.68;6.38;;;19.70;99.90;;;;;;4919844;29;20267;-70
2023/05/25 11:31:55;;;;;;;10.00;6.25;;;19.60;99.90;;;;;;4925391;29;20206;-69
2023/05/25 11:34:24;;;;;;;10.25;6.80;;;19.80;99.90;;;;;;4926720;29;20214;-71
2023/05/25 11:37:02;;;;;;;10.98;6.55;;;20.30;99.90;;;;;;4925185;29;20203;-70
2023/05/25 11:39:33;;;;;;;14.85;6.32;;;20.30;99.90;;;;;;4926808;29;20733;-69
2023/05/25 11:42:05;;;;;;;10.00;6.10;;;19.80;99.90;;;;;;4910843;29;20554;-70
2023/05/25 11:44:35;;;;;;;11.13;6.80;;;19.80;99.90;;;;;;4925308;29;20208;-70
2023/05/25 11:47:21;;;;;;;17.30;7.55;;;19.60;99.90;;;;;;4910178;29;20259;-69
2023/05/25 11:49:49;;;;;;;10.82;7.15;;;18.90;99.90;;;;;;4927491;29;20274;-70
2023/05/25 11:52:18;;;;;;;11.60;6.75;;;18.80;99.90;;;;;;4905187;29;20571;-71
2023/05/25 11:54:46;;;;;;;13.73;7.35;;;18.60;99.90;;;;;;4928492;29;20192;-70
2023/05/25 11:57:23;;;;;;;12.57;8.25;;;18.70;99.90;;;;;;4928755;29;20208;-69
2023/05/25 11:59:56;;;;;;;12.88;7.07;;;18.00;99.90;;;;;;4913373;29;20207;-70
2023/05/25 12:02:23;;;;;;;12.80;7.97;;;17.80;99.90;;;;;;4929791;29;20200;-70
2023/05/25 12:04:55;;;;;;;12.63;7.03;;;18.40;99.90;;;;;;4918997;29;20784;-69
2023/05/25 12:07:30;;;;;;;9.90;6.93;;;18.70;99.90;;;;;;4930396;29;20813;-73
2023/05/25 12:10:04;;;;;;;9.55;6.38;;;19.30;99.90;;;;;;4917521;29;20294;-69
2023/05/25 12:12:41;;;;;;;12.23;7.45;;;19.60;99.90;;;;;;4919662;29;20217;-69
2023/05/25 12:15:14;;;;;;;11.45;7.10;;;19.00;99.90;;;;;;4907639;29;20197;-69
2023/05/25 12:17:44;;;;;;;13.68;7.22;;;19.10;99.90;;;;;;4928368;29;20199;-69
2023/05/25 12:20:14;;;;;;;10.77;6.90;;;18.50;99.90;;;;;;4929761;29;20280;-69
2023/05/25 12:22:42;;;;;;;12.75;7.82;;;18.40;99.90;;;;;;4935728;29;20912;-69
2023/05/25 12:25:11;;;;;;;13.85;8.07;;;17.70;99.90;;;;;;4917539;29;20243;-68
2023/05/25 12:27:41;;;;;;;12.20;7.80;;;17.80;99.90;;;;;;4917649;29;20211;-71
2023/05/25 12:30:09;;;;;;;11.43;8.70;;;17.70;99.90;;;;;;4930485;29;20629;-67
2023/05/25 12:32:53;;;;;;;13.50;9.48;;;17.90;99.90;;;;;;4897647;29;20204;-68
2023/05/25 12:35:20;;;;;;;13.10;7.80;;;18.20;99.90;;;;;;4910083;29;20204;-68
2023/05/25 12:37:48;;;;;;;14.98;8.40;;;18.60;99.90;;;;;;4916910;29;20198;-67
2023/05/25 12:40:19;;;;;;;14.95;8.73;;;18.80;99.90;;;;;;4905603;29;20303;-69
2023/05/25 12:42:55;;;;;;;13.85;8.15;;;19.00;99.90;;;;;;4930292;29;20673;-68
2023/05/25 12:45:23;;;;;;;12.88;7.57;;;18.80;99.90;;;;;;4900125;29;20230;-68
2023/05/25 12:47:51;;;;;;;10.57;7.13;;;18.90;99.90;;;;;;4935795;29;20358;-69
2023/05/25 12:50:18;;;;;;;13.18;7.50;;;19.10;99.90;;;;;;4913596;29;20211;-69
2023/05/25 12:52:46;;;;;;;13.35;6.95;;;18.60;99.90;;;;;;4909458;29;20204;-69